sensor_id;sensor_type;location;lat;lon;timestamp;temperature;humidity
802;DHT22;383;48.766;9.270;2022-09-29T00:02:04;9.00;99.20
802;DHT22;383;48.766;9.270;2022-09-29T00:04:31;9.00;99.20
802;DHT22;383;48.766;9.270;2022-09-29T00:06:59;9.10;99.20
802;DHT22;383;48.766;9.270;2022-09-29T00:09:26;9.10;99.00
802;DHT22;383;48.766;9.270;2022-09-29T00:11:53;9.20;99.10
802;DHT22;383;48.766;9.270;2022-09-29T00:14:20;9.20;99.10
802;DHT22;383;48.766;9.270;2022-09-29T00:16:47;9.30;99.20
802;DHT22;383;48.766;9.270;2022-09-29T00:19:14;9.30;98.90
802;DHT22;383;48.766;9.270;2022-09-29T00:21:41;9.30;99.00
802;DHT22;383;48.766;9.270;2022-09-29T00:24:09;9.30;99.00
802;DHT22;383;48.766;9.270;2022-09-29T00:26:36;9.30;99.10
802;DHT22;383;48.766;9.270;2022-09-29T00:29:03;9.30;99.20
802;DHT22;383;48.766;9.270;2022-09-29T00:31:32;9.30;99.10
802;DHT22;383;48.766;9.270;2022-09-29T00:33:59;9.40;99.10
802;DHT22;383;48.766;9.270;2022-09-29T00:36:26;9.40;99.00
802;DHT22;383;48.766;9.270;2022-09-29T00:38:54;9.40;99.00
802;DHT22;383;48.766;9.270;2022-09-29T00:41:24;9.50;99.00
802;DHT22;383;48.766;9.270;2022-09-29T00:43:55;9.50;98.90
802;DHT22;383;48.766;9.270;2022-09-29T00:46:33;9.50;98.90
802;DHT22;383;48.766;9.270;2022-09-29T00:49:04;9.50;98.70
802;DHT22;383;48.766;9.270;2022-09-29T00:51:32;9.60;98.30
802;DHT22;383;48.766;9.270;2022-09-29T00:54:01;9.50;98.30
802;DHT22;383;48.766;9.270;2022-09-29T00:56:29;9.50;98.40
802;DHT22;383;48.766;9.270;2022-09-29T00:59:00;9.60;98.10
802;DHT22;383;48.766;9.270;2022-09-29T01:01:30;9.60;98.30
802;DHT22;383;48.766;9.270;2022-09-29T01:04:00;9.50;98.30
802;DHT22;383;48.766;9.270;2022-09-29T01:06:30;9.60;98.50
802;DHT22;383;48.766;9.270;2022-09-29T01:09:00;9.60;98.60
802;DHT22;383;48.766;9.270;2022-09-29T01:11:29;9.60;98.60
802;DHT22;383;48.766;9.270;2022-09-29T01:13:57;9.60;98.60
802;DHT22;383;48.766;9.270;2022-09-29T01:16:28;9.60;98.50
802;DHT22;383;48.766;9.270;2022-09-29T01:18:55;9.60;98.20
802;DHT22;383;48.766;9.270;2022-09-29T01:21:27;9.70;97.90
802;DHT22;383;48.766;9.270;2022-09-29T01:24:12;9.70;97.80
802;DHT22;383;48.766;9.270;2022-09-29T01:27:06;9.60;98.30
802;DHT22;383;48.766;9.270;2022-09-29T01:30:02;9.60;98.40
802;DHT22;383;48.766;9.270;2022-09-29T01:32:38;9.60;98.60
802;DHT22;383;48.766;9.270;2022-09-29T01:35:13;9.60;98.80
802;DHT22;383;48.766;9.270;2022-09-29T01:37:53;9.60;98.80
802;DHT22;383;48.766;9.270;2022-09-29T01:40:25;9.70;98.80
802;DHT22;383;48.766;9.270;2022-09-29T01:43:01;9.70;98.50
802;DHT22;383;48.766;9.270;2022-09-29T01:45:32;9.80;98.40
802;DHT22;383;48.766;9.270;2022-09-29T01:48:03;9.80;98.20
802;DHT22;383;48.766;9.270;2022-09-29T01:50:34;9.80;97.80
802;DHT22;383;48.766;9.270;2022-09-29T01:53:06;9.80;97.60
802;DHT22;383;48.766;9.270;2022-09-29T01:55:40;9.80;97.80
802;DHT22;383;48.766;9.270;2022-09-29T01:58:11;9.80;97.70
802;DHT22;383;48.766;9.270;2022-09-29T02:00:44;9.80;97.70
802;DHT22;383;48.766;9.270;2022-09-29T02:03:18;9.80;97.80
802;DHT22;383;48.766;9.270;2022-09-29T02:05:49;9.80;97.70
802;DHT22;383;48.766;9.270;2022-09-29T02:08:21;9.80;97.70
802;DHT22;383;48.766;9.270;2022-09-29T02:10:53;9.80;97.90
802;DHT22;383;48.766;9.270;2022-09-29T02:13:20;9.80;98.00
802;DHT22;383;48.766;9.270;2022-09-29T02:15:50;9.80;98.00
802;DHT22;383;48.766;9.270;2022-09-29T02:18:26;9.90;98.00
802;DHT22;383;48.766;9.270;2022-09-29T02:20:55;9.90;97.80
802;DHT22;383;48.766;9.270;2022-09-29T02:23:22;10.00;97.60
802;DHT22;383;48.766;9.270;2022-09-29T02:25:49;10.00;97.50
802;DHT22;383;48.766;9.270;2022-09-29T02:28:16;10.00;97.10
802;DHT22;383;48.766;9.270;2022-09-29T02:30:45;10.00;97.30
802;DHT22;383;48.766;9.270;2022-09-29T02:33:21;10.00;97.50
802;DHT22;383;48.766;9.270;2022-09-29T02:35:58;10.00;97.10
802;DHT22;383;48.766;9.270;2022-09-29T02:38:34;10.00;97.30
802;DHT22;383;48.766;9.270;2022-09-29T02:41:09;10.10;97.30
802;DHT22;383;48.766;9.270;2022-09-29T02:43:52;10.10;97.30
802;DHT22;383;48.766;9.270;2022-09-29T02:46:36;10.10;96.90
802;DHT22;383;48.766;9.270;2022-09-29T02:49:20;10.00;96.80
802;DHT22;383;48.766;9.270;2022-09-29T02:51:52;10.00;97.00
802;DHT22;383;48.766;9.270;2022-09-29T02:54:33;10.00;97.30
802;DHT22;383;48.766;9.270;2022-09-29T02:57:11;10.00;97.50
802;DHT22;383;48.766;9.270;2022-09-29T02:59:46;10.10;97.30
802;DHT22;383;48.766;9.270;2022-09-29T03:02:22;10.10;97.30
802;DHT22;383;48.766;9.270;2022-09-29T03:04:50;10.10;97.30
802;DHT22;383;48.766;9.270;2022-09-29T03:07:18;10.10;97.30
802;DHT22;383;48.766;9.270;2022-09-29T03:09:45;10.20;97.00
802;DHT22;383;48.766;9.270;2022-09-29T03:12:12;10.20;96.90
802;DHT22;383;48.766;9.270;2022-09-29T03:14:38;10.20;96.80
802;DHT22;383;48.766;9.270;2022-09-29T03:17:05;10.20;96.80
802;DHT22;383;48.766;9.270;2022-09-29T03:19:32;10.20;97.00
802;DHT22;383;48.766;9.270;2022-09-29T03:22:00;10.30;96.70
802;DHT22;383;48.766;9.270;2022-09-29T03:24:28;10.30;96.20
802;DHT22;383;48.766;9.270;2022-09-29T03:26:56;10.20;96.40
802;DHT22;383;48.766;9.270;2022-09-29T03:29:22;10.20;96.60
802;DHT22;383;48.766;9.270;2022-09-29T03:31:49;10.20;96.50
802;DHT22;383;48.766;9.270;2022-09-29T03:34:16;10.10;96.60
802;DHT22;383;48.766;9.270;2022-09-29T03:36:43;10.10;96.70
802;DHT22;383;48.766;9.270;2022-09-29T03:39:11;10.00;96.70
802;DHT22;383;48.766;9.270;2022-09-29T03:41:37;10.00;96.70
802;DHT22;383;48.766;9.270;2022-09-29T03:44:04;9.90;96.60
802;DHT22;383;48.766;9.270;2022-09-29T03:46:31;9.80;96.50
802;DHT22;383;48.766;9.270;2022-09-29T03:48:58;9.70;96.40
802;DHT22;383;48.766;9.270;2022-09-29T03:51:24;9.70;96.10
802;DHT22;383;48.766;9.270;2022-09-29T03:53:51;9.60;95.90
802;DHT22;383;48.766;9.270;2022-09-29T03:56:20;9.50;96.00
802;DHT22;383;48.766;9.270;2022-09-29T03:58:47;9.40;96.20
802;DHT22;383;48.766;9.270;2022-09-29T04:01:14;9.30;96.30
802;DHT22;383;48.766;9.270;2022-09-29T04:03:41;9.30;96.40
802;DHT22;383;48.766;9.270;2022-09-29T04:06:07;9.20;96.60
802;DHT22;383;48.766;9.270;2022-09-29T04:08:34;9.10;96.40
802;DHT22;383;48.766;9.270;2022-09-29T04:11:03;9.10;96.60
802;DHT22;383;48.766;9.270;2022-09-29T04:13:31;9.00;96.50
802;DHT22;383;48.766;9.270;2022-09-29T04:15:58;8.90;96.60
802;DHT22;383;48.766;9.270;2022-09-29T04:18:25;8.80;96.60
802;DHT22;383;48.766;9.270;2022-09-29T04:20:53;8.70;97.00
802;DHT22;383;48.766;9.270;2022-09-29T04:23:21;8.70;96.80
802;DHT22;383;48.766;9.270;2022-09-29T04:25:48;8.60;97.20
802;DHT22;383;48.766;9.270;2022-09-29T04:28:15;8.50;97.40
802;DHT22;383;48.766;9.270;2022-09-29T04:30:43;8.50;97.70
802;DHT22;383;48.766;9.270;2022-09-29T04:33:09;8.40;97.80
802;DHT22;383;48.766;9.270;2022-09-29T04:35:36;8.40;97.80
802;DHT22;383;48.766;9.270;2022-09-29T04:38:03;8.30;97.80
802;DHT22;383;48.766;9.270;2022-09-29T04:40:30;8.30;98.00
802;DHT22;383;48.766;9.270;2022-09-29T04:42:57;8.30;98.20
802;DHT22;383;48.766;9.270;2022-09-29T04:45:23;8.30;98.40
802;DHT22;383;48.766;9.270;2022-09-29T04:47:51;8.30;98.40
802;DHT22;383;48.766;9.270;2022-09-29T04:50:18;8.30;98.00
802;DHT22;383;48.766;9.270;2022-09-29T04:52:45;8.30;98.10
802;DHT22;383;48.766;9.270;2022-09-29T04:55:11;8.30;98.20
802;DHT22;383;48.766;9.270;2022-09-29T04:57:40;8.20;98.30
802;DHT22;383;48.766;9.270;2022-09-29T05:00:08;8.20;98.40
802;DHT22;383;48.766;9.270;2022-09-29T05:02:36;8.20;98.80
802;DHT22;383;48.766;9.270;2022-09-29T05:05:05;8.30;99.10
802;DHT22;383;48.766;9.270;2022-09-29T05:07:34;8.20;99.40
802;DHT22;383;48.766;9.270;2022-09-29T05:10:00;8.20;99.50
802;DHT22;383;48.766;9.270;2022-09-29T05:12:27;8.20;99.40
802;DHT22;383;48.766;9.270;2022-09-29T05:14:54;8.20;99.40
802;DHT22;383;48.766;9.270;2022-09-29T05:17:21;8.20;99.40
802;DHT22;383;48.766;9.270;2022-09-29T05:19:48;8.10;99.50
802;DHT22;383;48.766;9.270;2022-09-29T05:22:16;8.10;99.40
802;DHT22;383;48.766;9.270;2022-09-29T05:24:48;8.10;99.60
802;DHT22;383;48.766;9.270;2022-09-29T05:27:15;8.20;99.70
802;DHT22;383;48.766;9.270;2022-09-29T05:29:42;8.20;99.40
802;DHT22;383;48.766;9.270;2022-09-29T05:32:08;8.30;99.30
802;DHT22;383;48.766;9.270;2022-09-29T05:34:35;8.20;99.30
802;DHT22;383;48.766;9.270;2022-09-29T05:37:02;8.30;99.30
802;DHT22;383;48.766;9.270;2022-09-29T05:39:30;8.30;99.10
802;DHT22;383;48.766;9.270;2022-09-29T05:41:59;8.30;99.10
802;DHT22;383;48.766;9.270;2022-09-29T05:44:26;8.30;99.40
802;DHT22;383;48.766;9.270;2022-09-29T05:46:53;8.30;99.60
802;DHT22;383;48.766;9.270;2022-09-29T05:49:20;8.30;99.80
802;DHT22;383;48.766;9.270;2022-09-29T05:51:47;8.30;99.70
802;DHT22;383;48.766;9.270;2022-09-29T05:54:14;8.40;99.50
802;DHT22;383;48.766;9.270;2022-09-29T05:56:42;8.40;99.40
802;DHT22;383;48.766;9.270;2022-09-29T05:59:09;8.40;99.50
802;DHT22;383;48.766;9.270;2022-09-29T06:01:36;8.40;99.90
802;DHT22;383;48.766;9.270;2022-09-29T06:04:02;8.50;99.80
802;DHT22;383;48.766;9.270;2022-09-29T06:06:29;8.50;99.80
802;DHT22;383;48.766;9.270;2022-09-29T06:08:57;8.60;99.40
802;DHT22;383;48.766;9.270;2022-09-29T06:11:25;8.60;99.30
802;DHT22;383;48.766;9.270;2022-09-29T06:13:54;8.70;99.50
802;DHT22;383;48.766;9.270;2022-09-29T06:16:22;8.70;99.80
802;DHT22;383;48.766;9.270;2022-09-29T06:18:49;8.80;99.90
802;DHT22;383;48.766;9.270;2022-09-29T06:21:18;8.90;99.70
802;DHT22;383;48.766;9.270;2022-09-29T06:23:45;9.00;99.80
802;DHT22;383;48.766;9.270;2022-09-29T06:26:14;9.00;99.60
802;DHT22;383;48.766;9.270;2022-09-29T06:28:42;9.20;99.00
802;DHT22;383;48.766;9.270;2022-09-29T06:31:12;9.20;99.00
802;DHT22;383;48.766;9.270;2022-09-29T06:33:39;9.30;98.50
802;DHT22;383;48.766;9.270;2022-09-29T06:36:12;9.40;98.80
802;DHT22;383;48.766;9.270;2022-09-29T06:38:58;9.40;98.60
802;DHT22;383;48.766;9.270;2022-09-29T06:41:26;9.50;98.30
802;DHT22;383;48.766;9.270;2022-09-29T06:43:54;9.50;98.30
802;DHT22;383;48.766;9.270;2022-09-29T06:46:23;9.60;98.60
802;DHT22;383;48.766;9.270;2022-09-29T06:48:51;9.70;98.80
802;DHT22;383;48.766;9.270;2022-09-29T06:51:18;9.80;98.50
802;DHT22;383;48.766;9.270;2022-09-29T06:53:46;9.90;98.30
802;DHT22;383;48.766;9.270;2022-09-29T06:56:14;9.90;98.10
802;DHT22;383;48.766;9.270;2022-09-29T06:58:40;10.00;98.00
802;DHT22;383;48.766;9.270;2022-09-29T07:01:08;10.00;97.90
802;DHT22;383;48.766;9.270;2022-09-29T07:03:36;10.10;97.50
802;DHT22;383;48.766;9.270;2022-09-29T07:06:04;10.20;97.10
802;DHT22;383;48.766;9.270;2022-09-29T07:08:31;10.20;97.30
802;DHT22;383;48.766;9.270;2022-09-29T07:10:59;10.30;96.90
802;DHT22;383;48.766;9.270;2022-09-29T07:13:27;10.50;96.00
802;DHT22;383;48.766;9.270;2022-09-29T07:15:54;10.50;96.00
802;DHT22;383;48.766;9.270;2022-09-29T07:18:21;10.70;95.50
802;DHT22;383;48.766;9.270;2022-09-29T07:20:49;10.80;95.00
802;DHT22;383;48.766;9.270;2022-09-29T07:23:16;10.80;94.10
802;DHT22;383;48.766;9.270;2022-09-29T07:25:44;10.90;93.90
802;DHT22;383;48.766;9.270;2022-09-29T07:28:11;11.00;94.20
802;DHT22;383;48.766;9.270;2022-09-29T07:30:38;11.00;94.70
802;DHT22;383;48.766;9.270;2022-09-29T07:33:05;11.10;94.50
802;DHT22;383;48.766;9.270;2022-09-29T07:35:32;11.20;93.70
802;DHT22;383;48.766;9.270;2022-09-29T07:38:00;11.20;93.70
802;DHT22;383;48.766;9.270;2022-09-29T07:40:26;11.40;93.50
802;DHT22;383;48.766;9.270;2022-09-29T07:42:53;11.50;92.70
802;DHT22;383;48.766;9.270;2022-09-29T07:45:20;11.60;91.50
802;DHT22;383;48.766;9.270;2022-09-29T07:47:47;11.80;91.50
802;DHT22;383;48.766;9.270;2022-09-29T07:50:17;11.90;90.40
802;DHT22;383;48.766;9.270;2022-09-29T07:52:44;11.90;90.40
802;DHT22;383;48.766;9.270;2022-09-29T07:55:12;11.90;91.20
802;DHT22;383;48.766;9.270;2022-09-29T07:57:39;12.00;91.20
802;DHT22;383;48.766;9.270;2022-09-29T08:00:09;12.10;90.80
802;DHT22;383;48.766;9.270;2022-09-29T08:02:35;12.10;90.70
802;DHT22;383;48.766;9.270;2022-09-29T08:05:02;12.30;90.80
802;DHT22;383;48.766;9.270;2022-09-29T08:07:29;12.40;90.60
802;DHT22;383;48.766;9.270;2022-09-29T08:09:56;12.60;89.30
802;DHT22;383;48.766;9.270;2022-09-29T08:12:24;12.80;88.90
802;DHT22;383;48.766;9.270;2022-09-29T08:14:51;12.90;88.50
802;DHT22;383;48.766;9.270;2022-09-29T08:17:18;13.10;88.20
802;DHT22;383;48.766;9.270;2022-09-29T08:19:45;13.20;87.70
802;DHT22;383;48.766;9.270;2022-09-29T08:22:12;13.30;86.80
802;DHT22;383;48.766;9.270;2022-09-29T08:24:39;13.30;85.60
802;DHT22;383;48.766;9.270;2022-09-29T08:27:07;13.50;85.60
802;DHT22;383;48.766;9.270;2022-09-29T08:29:35;13.60;84.70
802;DHT22;383;48.766;9.270;2022-09-29T08:32:02;13.60;84.00
802;DHT22;383;48.766;9.270;2022-09-29T08:34:28;13.70;84.00
802;DHT22;383;48.766;9.270;2022-09-29T08:36:55;13.70;84.90
802;DHT22;383;48.766;9.270;2022-09-29T08:39:22;13.80;83.60
802;DHT22;383;48.766;9.270;2022-09-29T08:41:51;13.90;84.00
802;DHT22;383;48.766;9.270;2022-09-29T08:44:24;13.90;83.40
802;DHT22;383;48.766;9.270;2022-09-29T08:46:56;14.00;81.90
802;DHT22;383;48.766;9.270;2022-09-29T08:49:27;14.00;81.90
802;DHT22;383;48.766;9.270;2022-09-29T08:52:02;14.10;80.40
802;DHT22;383;48.766;9.270;2022-09-29T08:54:33;14.10;79.90
802;DHT22;383;48.766;9.270;2022-09-29T08:57:00;14.10;81.50
802;DHT22;383;48.766;9.270;2022-09-29T08:59:28;14.10;81.00
802;DHT22;383;48.766;9.270;2022-09-29T09:02:15;14.20;80.60
802;DHT22;383;48.766;9.270;2022-09-29T09:05:00;14.30;80.30
802;DHT22;383;48.766;9.270;2022-09-29T09:07:34;14.50;80.80
802;DHT22;383;48.766;9.270;2022-09-29T09:10:16;14.60;80.00
802;DHT22;383;48.766;9.270;2022-09-29T09:13:07;14.70;80.60
802;DHT22;383;48.766;9.270;2022-09-29T09:15:42;14.90;80.00
802;DHT22;383;48.766;9.270;2022-09-29T09:21:17;15.00;74.80
802;DHT22;383;48.766;9.270;2022-09-29T09:23:52;14.90;76.10
802;DHT22;383;48.766;9.270;2022-09-29T09:26:25;14.90;76.00
802;DHT22;383;48.766;9.270;2022-09-29T09:28:58;15.00;75.70
802;DHT22;383;48.766;9.270;2022-09-29T09:31:31;15.10;75.40
802;DHT22;383;48.766;9.270;2022-09-29T09:34:06;15.10;75.30
802;DHT22;383;48.766;9.270;2022-09-29T09:36:39;15.10;75.60
802;DHT22;383;48.766;9.270;2022-09-29T09:39:11;15.10;76.20
802;DHT22;383;48.766;9.270;2022-09-29T09:41:40;15.20;76.30
802;DHT22;383;48.766;9.270;2022-09-29T09:44:12;15.30;76.30
802;DHT22;383;48.766;9.270;2022-09-29T09:46:44;15.40;76.20
802;DHT22;383;48.766;9.270;2022-09-29T09:49:17;15.50;77.50
802;DHT22;383;48.766;9.270;2022-09-29T09:51:51;15.70;76.50
802;DHT22;383;48.766;9.270;2022-09-29T09:54:26;15.80;75.30
802;DHT22;383;48.766;9.270;2022-09-29T09:57:13;16.00;73.80
802;DHT22;383;48.766;9.270;2022-09-29T09:59:54;16.10;74.40
802;DHT22;383;48.766;9.270;2022-09-29T10:02:24;16.20;73.80
802;DHT22;383;48.766;9.270;2022-09-29T10:04:53;16.40;74.00
802;DHT22;383;48.766;9.270;2022-09-29T10:07:24;16.40;72.60
802;DHT22;383;48.766;9.270;2022-09-29T10:09:54;16.50;73.00
802;DHT22;383;48.766;9.270;2022-09-29T10:12:23;16.60;72.40
802;DHT22;383;48.766;9.270;2022-09-29T10:14:52;16.60;73.40
802;DHT22;383;48.766;9.270;2022-09-29T10:17:23;16.70;72.10
802;DHT22;383;48.766;9.270;2022-09-29T10:19:55;16.80;70.40
802;DHT22;383;48.766;9.270;2022-09-29T10:22:24;17.00;71.50
802;DHT22;383;48.766;9.270;2022-09-29T10:24:52;17.00;70.00
802;DHT22;383;48.766;9.270;2022-09-29T10:27:22;17.00;69.30
802;DHT22;383;48.766;9.270;2022-09-29T10:29:51;17.10;68.90
802;DHT22;383;48.766;9.270;2022-09-29T10:32:24;16.90;68.40
802;DHT22;383;48.766;9.270;2022-09-29T10:35:05;16.80;70.10
802;DHT22;383;48.766;9.270;2022-09-29T10:37:35;16.80;71.60
802;DHT22;383;48.766;9.270;2022-09-29T10:40:13;16.90;69.50
802;DHT22;383;48.766;9.270;2022-09-29T10:42:43;16.90;70.10
802;DHT22;383;48.766;9.270;2022-09-29T10:45:13;16.90;69.10
802;DHT22;383;48.766;9.270;2022-09-29T10:47:41;16.90;69.10
802;DHT22;383;48.766;9.270;2022-09-29T10:50:14;16.80;68.40
802;DHT22;383;48.766;9.270;2022-09-29T10:52:42;16.60;69.60
802;DHT22;383;48.766;9.270;2022-09-29T10:55:16;16.50;70.10
802;DHT22;383;48.766;9.270;2022-09-29T10:57:44;16.40;71.70
802;DHT22;383;48.766;9.270;2022-09-29T11:00:25;16.40;70.40
802;DHT22;383;48.766;9.270;2022-09-29T11:02:53;16.50;69.20
802;DHT22;383;48.766;9.270;2022-09-29T11:05:23;16.50;68.80
802;DHT22;383;48.766;9.270;2022-09-29T11:07:51;16.40;70.30
802;DHT22;383;48.766;9.270;2022-09-29T11:10:28;16.30;69.70
802;DHT22;383;48.766;9.270;2022-09-29T11:12:56;16.30;70.00
802;DHT22;383;48.766;9.270;2022-09-29T11:15:25;16.40;70.70
802;DHT22;383;48.766;9.270;2022-09-29T11:17:52;16.40;70.70
802;DHT22;383;48.766;9.270;2022-09-29T11:20:20;16.50;71.90
802;DHT22;383;48.766;9.270;2022-09-29T11:23:22;16.50;71.70
802;DHT22;383;48.766;9.270;2022-09-29T11:26:15;16.60;70.30
802;DHT22;383;48.766;9.270;2022-09-29T11:31:58;16.80;69.70
802;DHT22;383;48.766;9.270;2022-09-29T11:34:41;16.90;68.30
802;DHT22;383;48.766;9.270;2022-09-29T11:37:19;16.90;66.70
802;DHT22;383;48.766;9.270;2022-09-29T11:40:00;17.00;65.20
802;DHT22;383;48.766;9.270;2022-09-29T11:42:40;17.20;65.40
802;DHT22;383;48.766;9.270;2022-09-29T11:45:12;17.30;63.00
802;DHT22;383;48.766;9.270;2022-09-29T11:48:24;17.20;61.90
802;DHT22;383;48.766;9.270;2022-09-29T11:51:00;17.30;59.30
802;DHT22;383;48.766;9.270;2022-09-29T11:53:38;17.40;62.10
802;DHT22;383;48.766;9.270;2022-09-29T11:56:24;17.40;61.10
802;DHT22;383;48.766;9.270;2022-09-29T12:02:14;17.70;60.10
802;DHT22;383;48.766;9.270;2022-09-29T12:04:54;17.80;59.20
802;DHT22;383;48.766;9.270;2022-09-29T12:07:32;17.90;58.60
802;DHT22;383;48.766;9.270;2022-09-29T12:10:28;18.00;59.00
802;DHT22;383;48.766;9.270;2022-09-29T12:13:05;18.10;59.00
802;DHT22;383;48.766;9.270;2022-09-29T12:15:43;18.30;60.00
802;DHT22;383;48.766;9.270;2022-09-29T12:18:15;18.40;57.70
802;DHT22;383;48.766;9.270;2022-09-29T12:20:47;18.40;58.00
802;DHT22;383;48.766;9.270;2022-09-29T12:23:16;18.50;58.20
802;DHT22;383;48.766;9.270;2022-09-29T12:25:51;18.60;58.50
802;DHT22;383;48.766;9.270;2022-09-29T12:28:23;18.70;57.80
802;DHT22;383;48.766;9.270;2022-09-29T12:30:55;18.70;57.00
802;DHT22;383;48.766;9.270;2022-09-29T12:33:25;18.80;56.50
802;DHT22;383;48.766;9.270;2022-09-29T12:36:05;18.80;56.20
802;DHT22;383;48.766;9.270;2022-09-29T12:38:59;18.80;57.00
802;DHT22;383;48.766;9.270;2022-09-29T12:41:30;18.80;55.20
802;DHT22;383;48.766;9.270;2022-09-29T12:44:08;18.70;56.50
802;DHT22;383;48.766;9.270;2022-09-29T12:46:43;18.70;54.30
802;DHT22;383;48.766;9.270;2022-09-29T12:49:16;18.70;54.10
802;DHT22;383;48.766;9.270;2022-09-29T12:51:46;18.70;53.50
802;DHT22;383;48.766;9.270;2022-09-29T12:54:16;18.70;55.70
802;DHT22;383;48.766;9.270;2022-09-29T12:56:47;18.80;54.70
802;DHT22;383;48.766;9.270;2022-09-29T12:59:26;18.50;55.10
802;DHT22;383;48.766;9.270;2022-09-29T13:01:55;18.40;56.60
802;DHT22;383;48.766;9.270;2022-09-29T13:04:52;18.30;56.70
802;DHT22;383;48.766;9.270;2022-09-29T13:07:45;18.30;57.00
802;DHT22;383;48.766;9.270;2022-09-29T13:10:50;18.40;54.40
802;DHT22;383;48.766;9.270;2022-09-29T13:16:34;18.20;55.60
802;DHT22;383;48.766;9.270;2022-09-29T13:19:17;18.10;55.70
802;DHT22;383;48.766;9.270;2022-09-29T13:21:58;18.00;56.50
802;DHT22;383;48.766;9.270;2022-09-29T13:24:40;17.90;57.50
802;DHT22;383;48.766;9.270;2022-09-29T13:27:25;17.90;56.90
802;DHT22;383;48.766;9.270;2022-09-29T13:29:57;18.00;56.40
802;DHT22;383;48.766;9.270;2022-09-29T13:32:28;18.20;55.70
802;DHT22;383;48.766;9.270;2022-09-29T13:34:57;18.30;55.50
802;DHT22;383;48.766;9.270;2022-09-29T13:37:34;18.20;56.10
802;DHT22;383;48.766;9.270;2022-09-29T13:40:18;18.10;56.00
802;DHT22;383;48.766;9.270;2022-09-29T13:42:46;18.00;54.70
802;DHT22;383;48.766;9.270;2022-09-29T13:48:50;17.80;55.60
802;DHT22;383;48.766;9.270;2022-09-29T13:51:51;17.80;56.20
802;DHT22;383;48.766;9.270;2022-09-29T13:54:32;17.80;57.80
802;DHT22;383;48.766;9.270;2022-09-29T13:57:18;17.80;56.70
802;DHT22;383;48.766;9.270;2022-09-29T14:00:04;17.80;57.40
802;DHT22;383;48.766;9.270;2022-09-29T14:02:38;17.70;57.70
802;DHT22;383;48.766;9.270;2022-09-29T14:05:36;17.70;56.10
802;DHT22;383;48.766;9.270;2022-09-29T14:08:20;17.60;56.70
802;DHT22;383;48.766;9.270;2022-09-29T14:10:50;17.60;57.10
802;DHT22;383;48.766;9.270;2022-09-29T14:13:22;17.60;58.20
802;DHT22;383;48.766;9.270;2022-09-29T14:15:53;17.70;57.70
802;DHT22;383;48.766;9.270;2022-09-29T14:18:30;17.60;57.70
802;DHT22;383;48.766;9.270;2022-09-29T14:21:01;17.40;57.40
802;DHT22;383;48.766;9.270;2022-09-29T14:23:48;17.40;58.60
802;DHT22;383;48.766;9.270;2022-09-29T14:26:44;17.30;57.80
802;DHT22;383;48.766;9.270;2022-09-29T14:29:15;17.30;59.20
802;DHT22;383;48.766;9.270;2022-09-29T14:31:45;17.30;60.40
802;DHT22;383;48.766;9.270;2022-09-29T14:34:17;17.30;60.80
802;DHT22;383;48.766;9.270;2022-09-29T14:36:45;17.20;61.00
802;DHT22;383;48.766;9.270;2022-09-29T14:39:13;17.20;60.90
802;DHT22;383;48.766;9.270;2022-09-29T14:41:42;17.10;60.90
802;DHT22;383;48.766;9.270;2022-09-29T14:44:11;17.10;61.70
802;DHT22;383;48.766;9.270;2022-09-29T14:47:14;17.00;61.80
802;DHT22;383;48.766;9.270;2022-09-29T14:50:16;16.90;63.00
802;DHT22;383;48.766;9.270;2022-09-29T14:56:20;16.80;62.70
802;DHT22;383;48.766;9.270;2022-09-29T14:59:01;16.60;63.50
802;DHT22;383;48.766;9.270;2022-09-29T15:01:29;16.50;63.80
802;DHT22;383;48.766;9.270;2022-09-29T15:04:05;16.50;64.90
802;DHT22;383;48.766;9.270;2022-09-29T15:06:32;16.50;65.20
802;DHT22;383;48.766;9.270;2022-09-29T15:09:03;16.40;66.00
802;DHT22;383;48.766;9.270;2022-09-29T15:11:42;16.40;65.90
802;DHT22;383;48.766;9.270;2022-09-29T15:14:22;16.30;67.00
802;DHT22;383;48.766;9.270;2022-09-29T15:17:01;16.30;66.80
802;DHT22;383;48.766;9.270;2022-09-29T15:19:42;16.30;67.10
802;DHT22;383;48.766;9.270;2022-09-29T15:25:22;16.30;67.20
802;DHT22;383;48.766;9.270;2022-09-29T15:27:56;16.20;67.50
802;DHT22;383;48.766;9.270;2022-09-29T15:30:24;16.10;68.20
802;DHT22;383;48.766;9.270;2022-09-29T15:32:52;16.10;67.80
802;DHT22;383;48.766;9.270;2022-09-29T15:35:22;16.10;68.00
802;DHT22;383;48.766;9.270;2022-09-29T15:37:58;16.10;67.60
802;DHT22;383;48.766;9.270;2022-09-29T15:40:42;16.10;69.10
802;DHT22;383;48.766;9.270;2022-09-29T15:43:19;16.00;69.50
802;DHT22;383;48.766;9.270;2022-09-29T15:45:53;16.00;69.60
802;DHT22;383;48.766;9.270;2022-09-29T15:48:21;16.00;68.90
802;DHT22;383;48.766;9.270;2022-09-29T15:50:48;16.00;68.70
802;DHT22;383;48.766;9.270;2022-09-29T15:53:15;16.00;68.80
802;DHT22;383;48.766;9.270;2022-09-29T15:55:44;16.00;68.80
802;DHT22;383;48.766;9.270;2022-09-29T15:58:39;15.90;68.80
802;DHT22;383;48.766;9.270;2022-09-29T16:01:11;15.80;68.70
802;DHT22;383;48.766;9.270;2022-09-29T16:03:42;15.80;69.50
802;DHT22;383;48.766;9.270;2022-09-29T16:06:18;15.80;70.00
802;DHT22;383;48.766;9.270;2022-09-29T16:08:48;15.80;69.30
802;DHT22;383;48.766;9.270;2022-09-29T16:11:22;15.80;68.60
802;DHT22;383;48.766;9.270;2022-09-29T16:13:52;15.80;69.30
802;DHT22;383;48.766;9.270;2022-09-29T16:16:29;15.70;69.90
802;DHT22;383;48.766;9.270;2022-09-29T16:19:01;15.70;68.80
802;DHT22;383;48.766;9.270;2022-09-29T16:21:33;15.60;69.90
802;DHT22;383;48.766;9.270;2022-09-29T16:24:09;15.50;69.90
802;DHT22;383;48.766;9.270;2022-09-29T16:26:39;15.50;70.80
802;DHT22;383;48.766;9.270;2022-09-29T16:29:23;15.40;72.10
802;DHT22;383;48.766;9.270;2022-09-29T16:31:51;15.40;71.10
802;DHT22;383;48.766;9.270;2022-09-29T16:34:25;15.30;74.40
802;DHT22;383;48.766;9.270;2022-09-29T16:36:53;15.30;75.40
802;DHT22;383;48.766;9.270;2022-09-29T16:39:22;15.20;75.20
802;DHT22;383;48.766;9.270;2022-09-29T16:41:52;15.20;76.20
802;DHT22;383;48.766;9.270;2022-09-29T16:44:24;15.10;76.90
802;DHT22;383;48.766;9.270;2022-09-29T16:46:53;15.10;77.40
802;DHT22;383;48.766;9.270;2022-09-29T16:49:23;15.00;77.70
802;DHT22;383;48.766;9.270;2022-09-29T16:51:52;14.90;78.70
802;DHT22;383;48.766;9.270;2022-09-29T16:54:22;14.90;79.10
802;DHT22;383;48.766;9.270;2022-09-29T16:57:13;14.90;79.80
802;DHT22;383;48.766;9.270;2022-09-29T16:59:42;14.80;80.20
802;DHT22;383;48.766;9.270;2022-09-29T17:02:10;14.70;80.20
802;DHT22;383;48.766;9.270;2022-09-29T17:04:37;14.60;80.00
802;DHT22;383;48.766;9.270;2022-09-29T17:07:04;14.60;80.20
802;DHT22;383;48.766;9.270;2022-09-29T17:09:31;14.50;81.40
802;DHT22;383;48.766;9.270;2022-09-29T17:11:58;14.40;81.50
802;DHT22;383;48.766;9.270;2022-09-29T17:14:26;14.30;81.40
802;DHT22;383;48.766;9.270;2022-09-29T17:16:56;14.20;81.90
802;DHT22;383;48.766;9.270;2022-09-29T17:19:22;14.10;81.80
802;DHT22;383;48.766;9.270;2022-09-29T17:21:52;14.00;82.20
802;DHT22;383;48.766;9.270;2022-09-29T17:24:19;13.90;82.40
802;DHT22;383;48.766;9.270;2022-09-29T17:26:46;13.70;82.80
802;DHT22;383;48.766;9.270;2022-09-29T17:29:32;13.60;83.10
802;DHT22;383;48.766;9.270;2022-09-29T17:31:59;13.50;83.50
802;DHT22;383;48.766;9.270;2022-09-29T17:34:27;13.40;83.90